createdAt,value
2019-02-16T00:01:02.318Z,69.53
2019-02-16T00:03:13.252Z,69.87
2019-02-16T00:05:24.080Z,69.96
2019-02-16T00:07:34.892Z,70.09
2019-02-16T00:09:45.876Z,70.30
2019-02-16T00:11:56.678Z,70.08
2019-02-16T00:14:07.499Z,70.57
2019-02-16T00:16:18.304Z,71.01
2019-02-16T00:18:29.191Z,71.43
2019-02-16T00:20:40.023Z,71.40
2019-02-16T00:22:50.865Z,71.69
2019-02-16T00:25:01.790Z,71.42
2019-02-16T00:27:12.581Z,71.37
2019-02-16T00:29:23.380Z,71.33
2019-02-16T00:31:34.220Z,71.29
2019-02-16T00:33:45.017Z,71.16
2019-02-16T00:35:55.829Z,71.49
2019-02-16T00:38:06.629Z,71.70
2019-02-16T00:40:17.449Z,72.07
2019-02-16T00:42:28.274Z,72.21
2019-02-16T00:44:39.106Z,72.38
2019-02-16T00:46:49.932Z,72.41
2019-02-16T00:49:00.716Z,72.63
2019-02-16T00:51:13.938Z,72.66
2019-02-16T00:53:24.271Z,72.46
2019-02-16T00:55:35.063Z,72.74
2019-02-16T00:57:45.925Z,72.81
2019-02-16T00:59:56.750Z,72.94
2019-02-16T01:02:07.565Z,73.05
2019-02-16T01:04:18.398Z,73.03
2019-02-16T01:06:29.213Z,72.77
2019-02-16T01:08:40.018Z,72.74
2019-02-16T01:10:50.815Z,72.54
2019-02-16T01:13:01.678Z,72.34
2019-02-16T01:15:12.584Z,72.55
2019-02-16T01:17:23.406Z,72.50
2019-02-16T01:19:34.211Z,72.45
2019-02-16T01:21:45.013Z,72.77
2019-02-16T01:23:55.829Z,72.54
2019-02-16T01:26:06.633Z,72.38
2019-02-16T01:28:17.459Z,72.08
2019-02-16T01:30:28.238Z,71.97
2019-02-16T01:32:39.049Z,72.06
2019-02-16T01:34:49.868Z,72.48
2019-02-16T01:37:00.677Z,72.90
2019-02-16T01:39:11.503Z,72.75
2019-02-16T01:41:22.293Z,72.79
2019-02-16T01:43:33.111Z,72.80
2019-02-16T01:45:43.909Z,72.93
2019-02-16T01:47:54.715Z,72.63
2019-02-16T01:50:47.184Z,72.33
2019-02-16T01:52:57.988Z,71.96
2019-02-16T01:55:08.901Z,71.70
2019-02-16T01:57:19.692Z,71.70
2019-02-16T01:59:30.497Z,71.68
2019-02-16T02:01:41.309Z,71.62
2019-02-16T02:03:52.114Z,71.50
2019-02-16T02:06:02.927Z,71.29
2019-02-16T02:08:13.722Z,71.17
2019-02-16T02:10:24.532Z,71.41
2019-02-16T02:12:35.340Z,71.97
2019-02-16T02:14:46.171Z,72.17
2019-02-16T02:16:57.032Z,72.55
2019-02-16T02:19:07.859Z,73.08
2019-02-16T02:21:18.646Z,73.52
2019-02-16T02:23:29.427Z,74.11
2019-02-16T02:25:40.252Z,74.29
2019-02-16T02:27:51.052Z,74.39
2019-02-16T02:32:40.609Z,75.18
2019-02-16T02:34:51.429Z,74.97
2019-02-16T02:37:02.248Z,74.99
2019-02-16T02:39:13.051Z,74.73
2019-02-16T02:41:23.856Z,74.63
2019-02-16T02:43:34.676Z,74.57
2019-02-16T02:45:45.498Z,73.85
2019-02-16T02:47:56.313Z,73.53
2019-02-16T02:50:07.331Z,73.58
2019-02-16T02:52:18.159Z,73.56
2019-02-16T02:54:28.944Z,73.42
2019-02-16T02:56:39.882Z,73.24
2019-02-16T02:58:50.651Z,73.04
2019-02-16T03:01:01.614Z,72.95
2019-02-16T03:03:12.511Z,73.13
2019-02-16T03:05:23.346Z,73.86
2019-02-16T03:07:34.146Z,73.68
2019-02-16T03:09:44.932Z,73.91
2019-02-16T03:11:55.796Z,74.39
2019-02-16T03:14:06.617Z,74.26
2019-02-16T03:16:37.314Z,73.88
2019-02-16T03:18:48.127Z,73.88
2019-02-16T03:20:58.941Z,74.08
2019-02-16T03:23:51.420Z,73.29
2019-02-16T03:26:41.970Z,73.29
2019-02-16T03:29:32.498Z,73.57
2019-02-16T03:32:23.063Z,73.67
2019-02-16T03:35:15.513Z,73.51
2019-02-16T03:38:07.972Z,73.62
2019-02-16T03:40:18.763Z,73.78
2019-02-16T03:42:29.574Z,73.98
2019-02-16T03:44:40.373Z,73.95
2019-02-16T03:46:51.178Z,73.67
2019-02-16T03:49:01.987Z,73.28
2019-02-16T03:51:12.767Z,73.09
2019-02-16T03:53:23.586Z,72.96
2019-02-16T03:55:34.378Z,72.86
2019-02-16T03:57:45.182Z,73.12
2019-02-16T03:59:55.973Z,73.22
2019-02-16T04:02:06.783Z,73.38
2019-02-16T04:04:17.584Z,73.79
2019-02-16T04:06:28.390Z,73.73
2019-02-16T04:08:39.194Z,73.73
2019-02-16T04:10:49.981Z,73.74
2019-02-16T04:13:00.816Z,74.45
2019-02-16T04:15:11.716Z,74.87
2019-02-16T04:17:22.519Z,75.11
2019-02-16T04:19:33.321Z,75.19
2019-02-16T04:21:44.124Z,75.15
2019-02-16T04:23:54.934Z,75.07
2019-02-16T04:26:25.633Z,74.74
2019-02-16T04:28:36.426Z,74.74
2019-02-16T04:30:47.229Z,74.88
2019-02-16T04:32:58.123Z,74.72
2019-02-16T04:35:08.934Z,74.57
2019-02-16T04:37:19.725Z,74.28
2019-02-16T04:39:30.533Z,74.21
2019-02-16T04:42:01.218Z,74.30
2019-02-16T04:44:12.033Z,74.30
2019-02-16T04:46:22.834Z,74.19
2019-02-16T04:48:33.630Z,73.80
2019-02-16T04:50:44.451Z,73.53
2019-02-16T04:52:55.240Z,73.34
2019-02-16T04:55:47.698Z,73.34
2019-02-16T04:57:58.498Z,73.38
2019-02-16T05:00:09.457Z,73.56
2019-02-16T05:02:20.257Z,73.62
2019-02-16T05:04:31.062Z,73.53
2019-02-16T05:06:41.876Z,73.46
2019-02-16T05:08:52.679Z,73.93
2019-02-16T05:11:03.500Z,74.31
2019-02-16T05:13:14.393Z,74.31
2019-02-16T05:15:25.171Z,74.28
2019-02-16T05:17:35.979Z,74.16
2019-02-16T05:19:46.778Z,73.96
2019-02-16T05:21:57.593Z,73.70
2019-02-16T05:24:08.400Z,73.57
2019-02-16T05:26:19.224Z,73.36
2019-02-16T05:28:30.029Z,73.22
2019-02-16T05:30:40.827Z,73.30
2019-02-16T05:32:51.697Z,73.66
2019-02-16T05:35:44.143Z,73.75
2019-02-16T05:37:54.957Z,74.06
2019-02-16T05:40:47.408Z,74.29
2019-02-16T05:42:58.215Z,74.28
2019-02-16T05:45:09.230Z,74.43
2019-02-16T05:47:20.039Z,74.43
2019-02-16T05:49:30.840Z,75.03
2019-02-16T05:51:41.650Z,75.05
2019-02-16T05:53:52.440Z,75.18
2019-02-16T05:56:03.237Z,75.51
2019-02-16T05:58:14.043Z,75.44
2019-02-16T06:02:57.232Z,78.49
2019-02-16T06:05:08.055Z,79.93
2019-02-16T06:07:18.892Z,78.40
2019-02-16T06:09:29.690Z,75.41
2019-02-16T06:11:40.530Z,76.23
2019-02-16T06:13:51.335Z,74.63
2019-02-16T06:16:02.140Z,74.37
2019-02-16T06:18:12.961Z,74.37
2019-02-16T06:20:23.754Z,74.09
2019-02-16T06:22:34.567Z,74.44
2019-02-16T06:24:45.375Z,74.90
2019-02-16T06:26:56.232Z,75.09
2019-02-16T06:29:07.028Z,75.37
2019-02-16T06:31:17.832Z,75.29
2019-02-16T06:33:28.658Z,75.82
2019-02-16T06:38:11.844Z,76.00
2019-02-16T06:40:22.644Z,75.97
2019-02-16T06:42:33.466Z,76.26
2019-02-16T06:45:25.900Z,76.20
2019-02-16T06:47:36.742Z,76.06
2019-02-16T06:49:47.527Z,75.76
2019-02-16T06:51:58.315Z,75.44
2019-02-16T06:54:09.151Z,76.07
2019-02-16T06:58:52.331Z,76.05
2019-02-16T07:01:03.141Z,75.75
2019-02-16T07:03:13.993Z,75.79
2019-02-16T07:05:24.807Z,75.74
2019-02-16T07:07:35.654Z,75.55
2019-02-16T07:09:46.501Z,75.59
2019-02-16T07:11:57.311Z,75.40
2019-02-16T07:14:08.149Z,75.26
2019-02-16T07:19:11.188Z,74.97
2019-02-16T07:21:21.994Z,74.73
2019-02-16T07:23:32.800Z,74.47
2019-02-16T07:26:04.936Z,74.52
2019-02-16T07:28:16.216Z,74.52
2019-02-16T07:30:27.047Z,74.16
2019-02-16T07:32:37.852Z,73.94
2019-02-16T07:34:48.700Z,73.82
2019-02-16T07:36:59.485Z,73.73
2019-02-16T07:39:10.307Z,73.70
2019-02-16T07:41:21.116Z,73.78
2019-02-16T07:46:24.165Z,74.04
2019-02-16T07:48:54.852Z,73.81
2019-02-16T07:51:25.660Z,73.73
2019-02-16T07:53:56.352Z,72.94
2019-02-16T08:01:04.438Z,63.02
2019-02-16T08:03:35.825Z,60.23
2019-02-16T08:06:06.587Z,57.90
2019-02-16T08:08:37.299Z,56.05
2019-02-16T08:13:26.982Z,52.78
2019-02-16T08:18:30.058Z,51.55
2019-02-16T08:21:00.762Z,49.61
2019-02-16T08:26:03.828Z,49.06
2019-02-16T08:31:06.894Z,48.08
2019-02-16T08:33:37.587Z,47.67
2019-02-16T08:36:08.260Z,47.26
2019-02-16T08:38:38.958Z,46.05
2019-02-16T08:41:09.638Z,46.32
2019-02-16T08:46:02.669Z,45.43
2019-02-16T08:50:51.994Z,44.34
2019-02-16T08:53:22.706Z,44.08
2019-02-16T08:55:53.377Z,43.70
2019-02-16T09:00:46.270Z,42.90
2019-02-16T09:03:16.977Z,43.28
2019-02-16T09:05:47.674Z,43.26
2019-02-16T09:08:18.385Z,43.50
2019-02-16T09:13:21.426Z,43.36
2019-02-16T09:15:52.143Z,43.42
2019-02-16T09:23:00.179Z,41.70
2019-02-16T09:25:31.079Z,41.34
2019-02-16T09:30:34.240Z,41.27
2019-02-16T09:33:04.924Z,40.98
2019-02-16T09:35:35.637Z,40.63
2019-02-16T09:38:06.329Z,40.57
2019-02-16T09:42:55.730Z,40.28
2019-02-16T09:45:26.554Z,39.58
2019-02-16T09:47:57.245Z,39.43
2019-02-16T09:50:28.276Z,39.53
2019-02-16T09:52:59.015Z,39.31
2019-02-16T09:55:29.736Z,38.65
2019-02-16T09:58:00.491Z,39.15
2019-02-16T10:00:31.197Z,38.92
2019-02-16T10:03:01.888Z,38.75
2019-02-16T10:07:54.760Z,38.65
2019-02-16T10:12:44.239Z,38.00
2019-02-16T10:15:14.977Z,38.76
2019-02-16T10:17:45.670Z,37.08
2019-02-16T10:20:16.337Z,37.58
2019-02-16T10:25:05.410Z,38.33
2019-02-16T10:27:36.105Z,37.64
2019-02-16T10:30:06.805Z,37.74
2019-02-16T10:32:37.485Z,37.63
2019-02-16T10:35:08.166Z,38.07
2019-02-16T10:39:57.753Z,37.63
2019-02-16T10:42:28.468Z,38.94
2019-02-16T10:44:59.146Z,38.74
2019-02-16T10:52:28.860Z,37.31
2019-02-16T10:57:31.912Z,36.70
2019-02-16T11:00:02.596Z,37.07
2019-02-16T11:09:33.480Z,35.77
2019-02-16T11:14:36.840Z,35.08
2019-02-16T11:17:07.532Z,35.20
2019-02-16T11:19:38.227Z,34.10
2019-02-16T11:22:08.907Z,33.82
2019-02-16T11:29:20.816Z,32.24
2019-02-16T11:31:51.491Z,33.33
2019-02-16T11:34:22.183Z,33.46
2019-02-16T11:41:48.016Z,33.52
2019-02-16T11:44:18.700Z,33.37
2019-02-16T11:46:49.377Z,34.35
2019-02-16T11:51:38.848Z,33.86
2019-02-16T11:54:09.564Z,35.41
2019-02-16T12:03:50.552Z,34.36
2019-02-16T12:06:21.272Z,35.43
2019-02-16T12:08:51.982Z,34.73
2019-02-16T12:11:22.699Z,34.95
2019-02-16T12:18:44.225Z,35.24
2019-02-16T12:23:36.956Z,33.49
2019-02-16T12:26:07.648Z,33.70
2019-02-16T12:28:38.313Z,32.95
2019-02-16T12:31:09.085Z,33.57
2019-02-16T12:36:12.100Z,33.06
2019-02-16T12:41:15.157Z,32.72
2019-02-16T12:46:18.210Z,37.32
2019-02-16T12:48:48.876Z,36.51
2019-02-16T12:53:42.047Z,31.63
2019-02-16T12:56:12.741Z,30.38
2019-02-16T12:58:43.406Z,30.77
2019-02-16T13:01:14.115Z,31.01
2019-02-16T13:03:44.813Z,30.14
2019-02-16T13:06:15.503Z,30.92
2019-02-16T13:08:46.193Z,32.67
2019-02-16T13:13:49.299Z,33.92
2019-02-16T13:18:52.341Z,34.74
2019-02-16T13:21:23.019Z,33.94
2019-02-16T13:23:53.728Z,34.11
2019-02-16T13:26:24.402Z,32.63
2019-02-16T13:28:55.118Z,32.75
2019-02-16T13:31:25.809Z,32.87
2019-02-16T13:33:56.515Z,31.16
2019-02-16T13:38:59.573Z,30.74
2019-02-16T13:41:30.227Z,30.87
2019-02-16T13:50:57.562Z,30.11
2019-02-16T13:55:47.318Z,30.43
2019-02-16T13:58:18.016Z,30.49
2019-02-16T14:07:48.338Z,31.31
2019-02-16T14:10:19.023Z,31.33
2019-02-16T14:12:49.722Z,30.99
2019-02-16T14:15:20.440Z,30.78
2019-02-16T14:20:45.255Z,30.29
2019-02-16T14:22:56.072Z,30.03
2019-02-16T14:30:27.858Z,29.53
2019-02-16T14:32:38.652Z,29.01
2019-02-16T14:34:49.500Z,28.73
2019-02-16T14:42:05.056Z,29.13
2019-02-16T14:44:15.866Z,29.52
2019-02-16T14:46:26.679Z,30.12
2019-02-16T14:48:37.611Z,30.03
2019-02-16T14:50:48.436Z,31.30
2019-02-16T14:52:59.297Z,31.81
2019-02-16T14:55:32.010Z,31.96
2019-02-16T14:57:42.824Z,31.42
2019-02-16T14:59:53.626Z,31.25
2019-02-16T15:02:04.478Z,31.24
2019-02-16T15:04:15.277Z,29.63
2019-02-16T15:06:26.125Z,29.17
2019-02-16T15:08:36.959Z,29.14
2019-02-16T15:10:47.733Z,30.04
2019-02-16T15:12:58.554Z,30.75
2019-02-16T15:15:51.024Z,31.19
2019-02-16T15:18:03.722Z,31.31
2019-02-16T15:20:56.235Z,30.58
2019-02-16T15:23:07.040Z,30.50
2019-02-16T15:25:17.843Z,30.87
2019-02-16T15:27:28.674Z,31.09
2019-02-16T15:29:39.472Z,32.08
2019-02-16T15:31:50.270Z,32.80
2019-02-16T15:34:01.086Z,33.20
2019-02-16T15:36:11.909Z,33.48
2019-02-16T15:38:22.747Z,33.50
2019-02-16T15:40:33.569Z,33.61
2019-02-16T15:42:44.406Z,33.73
2019-02-16T15:44:55.218Z,34.02
2019-02-16T15:47:06.012Z,34.29
2019-02-16T15:49:16.856Z,34.77
2019-02-16T15:51:27.683Z,35.74
2019-02-16T15:53:38.516Z,36.41
2019-02-16T15:56:10.826Z,36.60
2019-02-16T15:58:22.158Z,36.78
2019-02-16T16:00:33.097Z,36.08
2019-02-16T16:03:25.555Z,36.14
2019-02-16T16:05:36.361Z,37.83
2019-02-16T16:15:16.724Z,43.83
2019-02-16T16:17:47.432Z,42.38
2019-02-16T16:20:18.131Z,42.06
2019-02-16T16:25:21.194Z,43.88
2019-02-16T16:30:46.005Z,43.91
2019-02-16T16:33:16.720Z,44.55
2019-02-16T16:35:47.429Z,45.77
2019-02-16T16:40:50.493Z,47.16
2019-02-16T16:45:53.530Z,47.64
2019-02-16T16:48:24.230Z,47.75
2019-02-16T16:50:54.928Z,48.42
2019-02-16T16:53:25.628Z,47.98
2019-02-16T16:58:15.426Z,47.43
2019-02-16T17:00:46.126Z,47.03
2019-02-16T17:03:16.814Z,46.79
2019-02-16T17:05:47.532Z,46.98
2019-02-16T17:08:18.228Z,46.82
2019-02-16T17:10:48.944Z,47.33
2019-02-16T17:13:19.619Z,48.53
2019-02-16T17:15:50.344Z,49.67
2019-02-16T17:18:21.020Z,50.81
2019-02-16T17:20:51.744Z,50.21
2019-02-16T17:23:22.434Z,49.87
2019-02-16T17:25:53.145Z,50.85
2019-02-16T17:28:23.838Z,51.00
2019-02-16T17:30:54.531Z,51.43
2019-02-16T17:33:25.234Z,51.58
2019-02-16T17:38:28.303Z,51.69
2019-02-16T17:40:58.996Z,51.94
2019-02-16T17:43:29.721Z,52.49
2019-02-16T17:46:00.429Z,53.98
2019-02-16T17:48:31.187Z,53.77
2019-02-16T17:53:54.121Z,54.05
2019-02-16T17:56:24.906Z,54.02
2019-02-16T17:58:55.617Z,54.09
2019-02-16T18:03:58.707Z,53.92
2019-02-16T18:06:29.419Z,53.96
2019-02-16T18:09:00.132Z,54.05
2019-02-16T18:11:30.836Z,54.54
2019-02-16T18:14:01.564Z,55.09
2019-02-16T18:16:32.399Z,54.76
2019-02-16T18:23:40.735Z,56.77
2019-02-16T18:28:43.887Z,57.44
2019-02-16T18:33:46.941Z,56.87
2019-02-16T18:36:17.633Z,57.06
2019-02-16T18:41:20.679Z,56.68
2019-02-16T18:43:51.503Z,56.79
2019-02-16T18:46:22.288Z,56.94
2019-02-16T18:51:25.381Z,58.39
2019-02-16T18:53:56.123Z,58.55
2019-02-16T18:56:26.792Z,59.08
2019-02-16T18:58:57.466Z,58.96
2019-02-16T19:01:28.208Z,58.71
2019-02-16T19:03:58.917Z,58.66
2019-02-16T19:06:29.663Z,58.31
2019-02-16T19:09:01.292Z,58.79
2019-02-16T19:11:32.042Z,58.80
2019-02-16T19:14:02.759Z,58.48
2019-02-16T19:16:33.506Z,59.43
2019-02-16T19:19:04.199Z,59.75
2019-02-16T19:21:34.917Z,59.99
2019-02-16T19:24:05.601Z,60.31
2019-02-16T19:28:58.672Z,60.52
2019-02-16T19:31:29.421Z,60.77
2019-02-16T19:34:00.106Z,60.83
2019-02-16T19:38:53.716Z,60.89
2019-02-16T19:41:24.450Z,60.98
2019-02-16T19:43:55.124Z,61.12
2019-02-16T19:48:58.172Z,61.58
2019-02-16T19:51:28.877Z,61.98
2019-02-16T19:53:59.584Z,61.86
2019-02-16T19:56:30.441Z,61.94
2019-02-16T19:59:01.209Z,61.96
2019-02-16T20:01:31.897Z,62.25
2019-02-16T20:04:02.683Z,62.21
2019-02-16T20:13:46.905Z,62.72
2019-02-16T20:18:50.001Z,63.06
2019-02-16T20:21:20.724Z,63.11
2019-02-16T20:23:51.428Z,63.55
2019-02-16T20:26:22.082Z,64.13
2019-02-16T20:28:52.801Z,64.04
2019-02-16T20:33:55.872Z,64.22
2019-02-16T20:36:26.567Z,64.29
2019-02-16T20:38:57.266Z,64.12
2019-02-16T20:41:27.996Z,64.47
2019-02-16T20:43:58.703Z,64.84
2019-02-16T20:46:29.443Z,64.74
2019-02-16T20:49:00.142Z,65.16
2019-02-16T20:56:11.455Z,65.54
2019-02-16T20:58:42.215Z,65.98
2019-02-16T21:03:35.151Z,65.29
2019-02-16T21:06:05.841Z,65.27
2019-02-16T21:08:36.538Z,65.61
2019-02-16T21:11:07.236Z,65.77
2019-02-16T21:16:10.308Z,66.20
2019-02-16T21:18:41.006Z,66.03
2019-02-16T21:21:11.718Z,66.16
2019-02-16T21:23:42.421Z,66.23
2019-02-16T21:26:13.129Z,66.12
2019-02-16T21:36:07.143Z,66.06
2019-02-16T21:38:37.834Z,66.45
2019-02-16T21:41:08.504Z,66.55
2019-02-16T21:43:39.220Z,66.71
2019-02-16T21:46:09.910Z,66.65
2019-02-16T21:48:40.630Z,66.77
2019-02-16T21:51:11.290Z,67.25
2019-02-16T21:53:42.068Z,67.72
2019-02-16T21:56:12.747Z,67.65
2019-02-16T21:58:43.675Z,67.85
2019-02-16T22:01:15.398Z,67.88
2019-02-16T22:03:46.170Z,68.15
2019-02-16T22:06:16.868Z,68.16
2019-02-16T22:08:47.590Z,68.07
2019-02-16T22:11:18.251Z,68.03
2019-02-16T22:13:29.089Z,67.95
2019-02-16T22:15:39.933Z,67.73
2019-02-16T22:17:50.755Z,67.81
2019-02-16T22:20:43.227Z,68.22
2019-02-16T22:22:54.045Z,67.96
2019-02-16T22:25:04.988Z,68.21
2019-02-16T22:27:15.798Z,68.31
2019-02-16T22:29:26.618Z,68.43
2019-02-16T22:31:37.434Z,68.33
2019-02-16T22:33:48.257Z,68.39
2019-02-16T22:35:59.064Z,68.41
2019-02-16T22:38:09.898Z,68.15
2019-02-16T22:40:20.759Z,67.97
2019-02-16T22:42:31.573Z,68.34
2019-02-16T22:44:42.389Z,68.19
2019-02-16T22:46:53.206Z,68.17
2019-02-16T22:49:04.011Z,67.91
2019-02-16T22:51:14.939Z,67.73
2019-02-16T22:53:25.735Z,67.64
2019-02-16T22:55:36.591Z,67.92
2019-02-16T22:57:47.412Z,68.54
2019-02-16T22:59:58.242Z,68.56
2019-02-16T23:02:50.675Z,68.87
2019-02-16T23:05:01.598Z,68.99
2019-02-16T23:07:12.400Z,69.18
2019-02-16T23:09:43.203Z,69.23
2019-02-16T23:11:54.123Z,68.97
2019-02-16T23:14:04.911Z,69.18
2019-02-16T23:16:15.764Z,69.37
2019-02-16T23:18:26.663Z,69.32
2019-02-16T23:20:37.493Z,69.53
2019-02-16T23:22:48.315Z,69.44
2019-02-16T23:24:59.118Z,69.53
2019-02-16T23:27:10.029Z,69.62
2019-02-16T23:29:20.833Z,69.65
2019-02-16T23:31:31.654Z,70.17
2019-02-16T23:33:42.472Z,70.27
2019-02-16T23:35:53.349Z,70.41
2019-02-16T23:38:04.133Z,70.38
2019-02-16T23:40:14.946Z,70.28
2019-02-16T23:42:25.824Z,70.60
2019-02-16T23:44:36.624Z,71.15
2019-02-16T23:46:47.453Z,70.84
2019-02-16T23:48:58.240Z,70.62
2019-02-16T23:51:09.054Z,71.10
2019-02-16T23:53:19.860Z,71.31
2019-02-16T23:55:30.667Z,71.49
2019-02-16T23:57:41.505Z,71.50
2019-02-16T23:59:52.305Z,71.52
